createdAt,value
2019-03-30T00:01:04.285Z,7.77
2019-03-30T00:05:22.858Z,7.93
2019-03-30T00:09:39.341Z,7.03
2019-03-30T00:13:55.929Z,5.53
2019-03-30T00:18:12.380Z,6.53
2019-03-30T00:22:29.178Z,7.77
2019-03-30T00:26:46.012Z,14.77
2019-03-30T00:31:02.563Z,9.50
2019-03-30T00:35:19.075Z,10.77
2019-03-30T00:39:35.578Z,9.83
2019-03-30T00:43:52.395Z,12.83
2019-03-30T00:48:09.229Z,8.77
2019-03-30T00:52:25.911Z,8.20
2019-03-30T00:56:42.749Z,10.87
2019-03-30T01:00:59.673Z,10.43
2019-03-30T01:05:16.232Z,8.40
2019-03-30T01:09:32.831Z,7.27
2019-03-30T01:13:49.460Z,6.33
2019-03-30T01:18:05.948Z,6.93
2019-03-30T01:22:22.484Z,5.93
2019-03-30T01:26:39.361Z,5.40
2019-03-30T01:30:56.203Z,8.00
2019-03-30T01:35:12.881Z,6.77
2019-03-30T01:39:29.470Z,5.90
2019-03-30T01:43:46.389Z,7.43
2019-03-30T01:48:03.206Z,14.20
2019-03-30T01:52:19.743Z,10.43
2019-03-30T01:56:36.526Z,7.00
2019-03-30T02:00:53.094Z,8.90
2019-03-30T02:05:09.909Z,8.10
2019-03-30T02:09:26.415Z,6.07
2019-03-30T02:13:43.049Z,8.57
2019-03-30T02:17:59.629Z,8.43
2019-03-30T02:22:16.686Z,7.70
2019-03-30T02:26:33.570Z,15.73
2019-03-30T02:30:50.167Z,11.43
2019-03-30T02:35:08.139Z,6.93
2019-03-30T02:39:27.410Z,5.67
2019-03-30T02:43:44.269Z,6.53
2019-03-30T02:48:01.285Z,5.23
2019-03-30T02:52:18.238Z,5.20
2019-03-30T02:56:35.112Z,4.67
2019-03-30T03:00:51.804Z,5.90
2019-03-30T03:05:09.009Z,3.90
2019-03-30T03:09:25.506Z,5.90
2019-03-30T03:13:42.044Z,5.10
2019-03-30T03:17:58.558Z,8.43
2019-03-30T03:22:15.065Z,9.13
2019-03-30T03:26:32.100Z,5.67
2019-03-30T03:30:48.620Z,8.20
2019-03-30T03:35:05.712Z,7.20
2019-03-30T03:39:22.137Z,8.53
2019-03-30T03:43:38.680Z,7.03
2019-03-30T03:47:55.162Z,5.13
2019-03-30T03:52:11.803Z,7.37
2019-03-30T03:56:29.221Z,4.63
2019-03-30T04:00:45.931Z,6.17
2019-03-30T04:05:06.156Z,5.30
2019-03-30T04:09:23.178Z,6.97
2019-03-30T04:13:42.264Z,9.30
2019-03-30T04:17:59.021Z,7.43
2019-03-30T04:22:15.494Z,6.70
2019-03-30T04:26:32.336Z,5.23
2019-03-30T04:30:48.836Z,7.33
2019-03-30T04:35:05.726Z,6.87
2019-03-30T04:39:22.167Z,4.77
2019-03-30T04:43:39.176Z,8.90
2019-03-30T04:47:55.957Z,6.40
2019-03-30T04:52:12.435Z,5.10
2019-03-30T04:56:29.303Z,6.13
2019-03-30T05:00:45.760Z,8.17
2019-03-30T05:05:03.292Z,12.57
2019-03-30T05:09:19.830Z,10.43
2019-03-30T05:13:36.657Z,9.60
2019-03-30T05:17:53.166Z,6.93
2019-03-30T05:22:13.531Z,7.40
2019-03-30T05:26:28.151Z,5.50
2019-03-30T05:30:44.663Z,6.63
2019-03-30T05:35:01.417Z,5.07
2019-03-30T05:39:18.119Z,4.10
2019-03-30T05:43:34.618Z,5.73
2019-03-30T05:47:51.135Z,3.90
2019-03-30T05:52:07.648Z,4.23
2019-03-30T05:56:24.265Z,3.23
2019-03-30T06:00:40.893Z,4.23
2019-03-30T06:04:58.698Z,4.93
2019-03-30T06:09:15.461Z,6.40
2019-03-30T06:13:31.953Z,5.87
2019-03-30T06:17:48.791Z,5.27
2019-03-30T06:22:05.397Z,6.30
2019-03-30T06:26:21.916Z,6.67
2019-03-30T06:30:38.435Z,8.93
2019-03-30T06:34:54.932Z,8.07
2019-03-30T06:39:11.408Z,8.30
2019-03-30T06:43:28.399Z,9.23
2019-03-30T06:47:45.512Z,7.87
2019-03-30T06:52:02.117Z,10.03
2019-03-30T06:56:18.681Z,10.37
2019-03-30T07:00:35.461Z,8.43
2019-03-30T07:04:52.003Z,7.93
2019-03-30T07:09:08.825Z,9.23
2019-03-30T07:13:27.325Z,12.00
2019-03-30T07:17:47.529Z,9.60
2019-03-30T07:22:04.004Z,15.83
2019-03-30T07:26:20.596Z,13.00
2019-03-30T07:30:37.142Z,17.20
2019-03-30T07:34:53.903Z,13.53
2019-03-30T07:39:10.755Z,15.27
2019-03-30T07:43:27.296Z,16.70
2019-03-30T07:47:43.816Z,16.47
2019-03-30T07:52:00.315Z,13.47
2019-03-30T07:56:16.841Z,12.40
2019-03-30T08:00:33.362Z,8.97
2019-03-30T08:04:50.146Z,10.23
2019-03-30T08:09:06.701Z,10.00
2019-03-30T08:13:23.212Z,9.83
2019-03-30T08:17:40.042Z,10.60
2019-03-30T08:21:56.552Z,8.90
2019-03-30T08:26:13.043Z,8.10
2019-03-30T08:30:29.822Z,8.07
2019-03-30T08:34:46.303Z,9.33
2019-03-30T08:39:05.325Z,11.10
2019-03-30T08:43:21.806Z,9.07
2019-03-30T08:47:38.498Z,9.13
2019-03-30T08:51:55.133Z,9.47
2019-03-30T08:56:11.951Z,9.33
2019-03-30T09:00:39.661Z,8.63
2019-03-30T09:04:56.454Z,9.70
2019-03-30T09:09:13.006Z,10.23
2019-03-30T09:13:29.620Z,9.80
2019-03-30T09:17:46.106Z,9.43
2019-03-30T09:22:02.860Z,10.93
2019-03-30T09:26:19.420Z,11.20
2019-03-30T09:30:36.043Z,12.27
2019-03-30T09:34:52.854Z,10.83
2019-03-30T09:39:09.477Z,10.97
2019-03-30T09:43:26.104Z,9.67
2019-03-30T09:47:43.327Z,10.30
2019-03-30T09:51:59.879Z,11.77
2019-03-30T09:56:16.403Z,10.23
2019-03-30T10:00:33.079Z,10.37
2019-03-30T10:04:49.729Z,10.33
2019-03-30T10:09:06.538Z,9.23
2019-03-30T10:13:23.067Z,8.93
2019-03-30T10:17:39.685Z,8.50
2019-03-30T10:21:56.208Z,8.13
2019-03-30T10:26:12.684Z,8.63
2019-03-30T10:30:29.534Z,8.30
2019-03-30T10:34:46.943Z,7.93
2019-03-30T10:39:06.564Z,7.30
2019-03-30T10:43:23.488Z,8.27
2019-03-30T10:47:40.003Z,10.10
2019-03-30T10:51:56.828Z,7.67
2019-03-30T10:56:13.517Z,9.43
2019-03-30T11:00:39.862Z,9.00
2019-03-30T11:04:56.404Z,9.30
2019-03-30T11:09:13.229Z,8.43
2019-03-30T11:13:29.746Z,7.03
2019-03-30T11:17:46.652Z,7.73
2019-03-30T11:22:03.623Z,8.97
2019-03-30T11:26:20.126Z,8.13
2019-03-30T11:30:36.643Z,8.63
2019-03-30T11:34:53.152Z,8.97
2019-03-30T11:39:30.011Z,8.50
2019-03-30T11:43:46.556Z,8.37
2019-03-30T11:48:03.631Z,9.13
2019-03-30T11:52:20.216Z,9.37
2019-03-30T11:56:36.813Z,9.40
2019-03-30T12:00:53.330Z,8.03
2019-03-30T12:05:12.614Z,6.67
2019-03-30T12:09:31.057Z,8.40
2019-03-30T12:13:47.592Z,8.53
2019-03-30T12:18:04.128Z,9.50
2019-03-30T12:22:20.625Z,9.40
2019-03-30T12:26:37.140Z,9.33
2019-03-30T12:30:53.648Z,9.53
2019-03-30T12:35:10.281Z,9.50
2019-03-30T12:39:26.869Z,10.50
2019-03-30T12:43:43.615Z,8.20
2019-03-30T12:48:00.101Z,9.38
2019-03-30T12:52:16.846Z,9.88
2019-03-30T12:56:33.707Z,8.43
2019-03-30T13:00:50.570Z,10.85
2019-03-30T13:05:07.693Z,8.15
2019-03-30T13:09:24.447Z,9.78
2019-03-30T13:13:40.953Z,8.40
2019-03-30T13:17:57.751Z,10.85
2019-03-30T13:22:14.398Z,12.93
2019-03-30T13:26:31.186Z,8.45
2019-03-30T13:31:07.883Z,9.95
2019-03-30T13:35:24.420Z,8.68
2019-03-30T13:39:40.941Z,9.93
2019-03-30T13:43:57.427Z,9.20
2019-03-30T13:48:13.979Z,10.03
2019-03-30T13:52:30.476Z,11.70
2019-03-30T13:56:47.614Z,8.48
2019-03-30T14:01:04.248Z,10.63
2019-03-30T14:05:20.758Z,10.23
2019-03-30T14:09:37.305Z,8.35
2019-03-30T14:13:56.556Z,8.43
2019-03-30T14:18:13.793Z,10.53
2019-03-30T14:22:30.328Z,7.30
2019-03-30T14:26:46.827Z,11.45
2019-03-30T14:31:03.461Z,6.90
2019-03-30T14:35:20.561Z,10.70
2019-03-30T14:39:38.385Z,8.23
2019-03-30T14:43:55.237Z,10.37
2019-03-30T14:48:11.928Z,6.90
2019-03-30T14:52:28.777Z,8.50
2019-03-30T14:56:46.296Z,8.60
2019-03-30T15:01:03.450Z,7.10
2019-03-30T15:05:19.937Z,8.20
2019-03-30T15:09:36.776Z,7.57
2019-03-30T15:13:53.304Z,6.73
2019-03-30T15:18:10.093Z,4.77
2019-03-30T15:22:26.643Z,6.80
2019-03-30T15:26:43.450Z,5.90
2019-03-30T15:30:59.972Z,5.20
2019-03-30T15:35:16.488Z,5.23
2019-03-30T15:39:33.278Z,6.20
2019-03-30T15:43:51.982Z,5.37
2019-03-30T15:48:08.574Z,7.17
2019-03-30T15:52:25.090Z,8.13
2019-03-30T15:56:43.809Z,6.60
2019-03-30T16:01:00.292Z,6.03
2019-03-30T16:05:17.324Z,7.50
2019-03-30T16:09:34.241Z,5.93
2019-03-30T16:13:50.855Z,4.10
2019-03-30T16:18:07.369Z,7.87
2019-03-30T16:22:24.011Z,4.73
2019-03-30T16:26:42.359Z,6.70
2019-03-30T16:30:58.987Z,5.47
2019-03-30T16:35:15.589Z,5.10
2019-03-30T16:39:34.879Z,4.40
2019-03-30T16:43:50.775Z,5.03
2019-03-30T16:48:07.276Z,6.07
2019-03-30T16:52:23.816Z,5.20
2019-03-30T16:56:40.529Z,3.30
2019-03-30T17:00:57.216Z,3.00
2019-03-30T17:05:13.996Z,4.10
2019-03-30T17:09:30.818Z,3.60
2019-03-30T17:13:47.427Z,3.50
2019-03-30T17:18:04.375Z,3.03
2019-03-30T17:22:21.129Z,2.50
2019-03-30T17:26:38.501Z,2.90
2019-03-30T17:30:55.299Z,3.33
2019-03-30T17:35:12.150Z,3.10
2019-03-30T17:39:28.938Z,4.97
2019-03-30T17:43:45.752Z,4.37
2019-03-30T17:48:02.395Z,4.33
2019-03-30T17:52:19.087Z,5.37
2019-03-30T17:56:35.628Z,5.27
2019-03-30T18:00:52.563Z,6.20
2019-03-30T18:05:15.070Z,4.63
2019-03-30T18:09:32.251Z,10.10
2019-03-30T18:13:48.750Z,9.30
2019-03-30T18:18:05.390Z,7.67
2019-03-30T18:22:22.243Z,9.60
2019-03-30T18:26:39.128Z,7.20
2019-03-30T18:30:55.631Z,7.07
2019-03-30T18:35:12.483Z,26.60
2019-03-30T18:39:29.177Z,15.83
2019-03-30T18:43:46.364Z,14.73
2019-03-30T18:48:15.750Z,15.70
2019-03-30T18:52:32.951Z,11.80
2019-03-30T18:56:49.497Z,10.90
2019-03-30T19:01:06.041Z,8.63
2019-03-30T19:05:22.738Z,10.70
2019-03-30T19:09:39.500Z,16.80
2019-03-30T19:13:55.964Z,20.80
2019-03-30T19:18:12.682Z,12.60
2019-03-30T19:22:29.215Z,10.57
2019-03-30T19:26:45.928Z,8.90
2019-03-30T19:31:02.651Z,7.60
2019-03-30T19:35:19.434Z,9.70
2019-03-30T19:39:36.104Z,11.10
2019-03-30T19:43:52.690Z,8.47
2019-03-30T19:48:09.220Z,8.13
2019-03-30T19:52:39.284Z,8.27
2019-03-30T19:56:44.474Z,8.43
2019-03-30T20:01:01.006Z,7.93
2019-03-30T20:05:17.643Z,7.17
2019-03-30T20:09:34.471Z,9.87
2019-03-30T20:13:50.978Z,13.93
2019-03-30T20:18:07.517Z,17.00
2019-03-30T20:22:24.419Z,15.00
2019-03-30T20:26:41.026Z,9.17
2019-03-30T20:30:57.951Z,12.63
2019-03-30T20:35:14.591Z,12.07
2019-03-30T20:39:31.393Z,8.10
2019-03-30T20:43:47.921Z,6.40
2019-03-30T20:48:04.731Z,13.63
2019-03-30T20:52:21.280Z,11.90
2019-03-30T20:56:37.776Z,10.80
2019-03-30T21:00:54.292Z,10.93
2019-03-30T21:05:12.899Z,9.67
2019-03-30T21:09:29.466Z,11.57
2019-03-30T21:13:45.981Z,12.43
2019-03-30T21:18:02.602Z,9.10
2019-03-30T21:22:19.111Z,9.83
2019-03-30T21:26:35.908Z,9.00
2019-03-30T21:30:52.764Z,7.27
2019-03-30T21:35:09.765Z,7.87
2019-03-30T21:39:27.385Z,10.90
2019-03-30T21:43:43.938Z,10.00
2019-03-30T21:48:00.617Z,7.20
2019-03-30T21:52:17.169Z,10.20
2019-03-30T21:56:33.992Z,11.47
2019-03-30T22:00:50.581Z,10.07
2019-03-30T22:05:08.157Z,9.17
2019-03-30T22:09:24.951Z,6.53
2019-03-30T22:13:41.487Z,6.77
2019-03-30T22:17:58.308Z,6.70
2019-03-30T22:22:14.818Z,7.93
2019-03-30T22:26:31.327Z,10.13
2019-03-30T22:30:47.850Z,11.67
2019-03-30T22:35:04.599Z,8.83
2019-03-30T22:39:21.092Z,6.67
2019-03-30T22:43:37.591Z,6.33
2019-03-30T22:47:54.119Z,8.17
2019-03-30T22:52:10.725Z,13.13
2019-03-30T22:56:27.564Z,10.80
2019-03-30T23:00:46.340Z,9.00
2019-03-30T23:05:04.635Z,6.77
2019-03-30T23:09:21.124Z,6.77
2019-03-30T23:13:37.829Z,5.93
2019-03-30T23:17:54.450Z,9.67
2019-03-30T23:22:10.936Z,7.97
2019-03-30T23:26:27.481Z,7.23
2019-03-30T23:30:54.098Z,6.20
2019-03-30T23:35:04.438Z,8.30
2019-03-30T23:39:20.959Z,14.00
2019-03-30T23:43:37.533Z,15.30
2019-03-30T23:47:54.122Z,28.77
2019-03-30T23:52:10.667Z,21.17
2019-03-30T23:56:27.255Z,14.20
